Nearby METAR Reports

 

EBAW - Antwerp/Deurne, Belgium
Distance from station: ZZO 9km
Ververst: 01/02/2023 23:20
Zwaar bewolkt
Zwaar bewolkt
 Wind van W
Wind: W 26 km/h
Temperatuur: 9°C
Gevoelstemp.: 6°C
Dauwpunt: 4°C
Vochtigheid: 71%
Barometer: 1023 hPa
Clouds: Zwaar bewolkt
Visibility: 10 km
Cloud details: Zwaar bewolkt 1311 m
2023/02/01 22:20 EBAW 012220Z AUTO 27014KT 9999 // OVC043/// 09/04 Q1023
EHWO - Woensdrecht Rnla, Netherlands
Distance from station: NNW 20km
Ververst: 01/02/2023 23:25
Zwaar bewolkt
Zwaar bewolkt
 Wind van W
Wind: W 24 km/h
Temperatuur: 8°C
Gevoelstemp.: 4°C
Dauwpunt: 5°C
Vochtigheid: 82%
Barometer: 1022 hPa
Clouds: Zwaar bewolkt
Visibility: 10 km
Cloud details: Meestal bewolkt 884 m
Zwaar bewolkt 1036 m
2023/02/01 22:25 EHWO 012225Z AUTO 26013KT 230V310 9999 BKN029 OVC034 08/05 Q1022 REDZ BLU
 
EBBR - Brussels Nationa, Belgium
Distance from station: Z 43km
Ververst: 01/02/2023 23:20
Meestal bewolkt
Meestal bewolkt
 Wind van W
Wind: W 24 km/h
Temperatuur: 8°C
Gevoelstemp.: 4°C
Dauwpunt: 4°C
Vochtigheid: 76%
Barometer: 1023 hPa
Clouds: Meestal bewolkt
Visibility: 10 km
Cloud details: Meestal bewolkt 1372 m
2023/02/01 22:20 EBBR 012220Z 26013KT 9999 BKN045 08/04 Q1023 NOSIG
EHGR - Gilze-Rijen Rnla, Netherlands
Distance from station: NO 47km
Ververst: 01/02/2023 23:33
Lichte regen, Meestal bewolkt
Lichte regen, Meestal bewolkt
 Wind van W
Wind: W 24 km/h
Temperatuur: 9°C
Gevoelstemp.: 6°C
Dauwpunt: 5°C
Vochtigheid: 76%
Barometer: 1021 hPa
Overzicht: Lichte regen
Clouds: Meestal bewolkt
Visibility: 10 km
Cloud details: Few Clouds 457 m
Gedeeltelijk bewolkt 701 m
Meestal bewolkt 975 m
2023/02/01 22:33 EHGR 012233Z AUTO 27013KT 9999 -RA FEW015CB SCT023 BKN032 09/05 Q1021 WHT
 
EBDT - Schaffen, Belgium
Distance from station: OZO 54km
Ververst: 01/02/2023 23:25
Zwaar bewolkt
Zwaar bewolkt
 Wind van W
Wind: W 22 km/h
Temperatuur: 8°C
Gevoelstemp.: 4°C
Dauwpunt: 4°C
Vochtigheid: 76%
Barometer: 1022 hPa
Clouds: Zwaar bewolkt
Visibility: 10 km
Cloud details: Zwaar bewolkt 1341 m
2023/02/01 22:25 EBDT 012225Z AUTO 27012KT 9999 OVC044/// 08/04 Q1022 BLU
EHFS - Vlissingen, Netherlands
Distance from station: WNW 60km
Ververst: 01/02/2023 23:25
Zwaar bewolkt
Zwaar bewolkt
 Wind van W
Wind: W 33 km/h
Temperatuur: 8°C
Gevoelstemp.: 3°C
Dauwpunt: 5°C
Vochtigheid: 82%
Barometer: 1023 hPa
Clouds: Zwaar bewolkt
Visibility: 10 km
Cloud details: Meestal bewolkt 1067 m
Zwaar bewolkt 1189 m
2023/02/01 22:25 EHFS 012225Z AUTO 26018KT 9999 BKN035/// OVC039/// 08/05 Q1023
 
EBBE - Beauvechain (baf, Belgium
Distance from station: ZZO 64km
Ververst: 01/02/2023 23:25
Zwaar bewolkt
Zwaar bewolkt
 Wind van W
Wind: W 26 km/h
Temperatuur: 7°C
Gevoelstemp.: 3°C
Dauwpunt: 4°C
Vochtigheid: 81%
Barometer: 1023 hPa
Clouds: Zwaar bewolkt
Visibility: 10 km
Cloud details: Meestal bewolkt 1219 m
Zwaar bewolkt 1433 m
2023/02/01 22:25 EBBE 012225Z AUTO 26014KT 9999 BKN040/// OVC047/// 07/04 Q1023 BLU
EHEH - Eindhoven Rnlafb, Netherlands
Distance from station: ONO 69km
Ververst: 01/02/2023 23:32
Meestal bewolkt
Meestal bewolkt
 Wind van W
Wind: W 20 km/h
Temperatuur: 8°C
Gevoelstemp.: 4°C
Dauwpunt: 5°C
Vochtigheid: 82%
Barometer: 1021 hPa
Clouds: Meestal bewolkt
Visibility: 10 km
Cloud details: Gedeeltelijk bewolkt 732 m
Gedeeltelijk bewolkt 914 m
Meestal bewolkt 1067 m
2023/02/01 22:32 EHEH 012232Z AUTO 26011KT 230V300 9999 SCT024 SCT030 BKN035 08/05 Q1021 WHT
 
EBBL - Kleine-Brogel(Ba, Belgium
Distance from station: O 74km
Ververst: 01/02/2023 23:25
Lichte regen, Zwaar bewolkt
Lichte regen, Zwaar bewolkt
 Wind van W
Wind: W 20 km/h
Temperatuur: 7°C
Gevoelstemp.: 4°C
Dauwpunt: 5°C
Vochtigheid: 87%
Barometer: 1022 hPa
Overzicht: Lichte regen
Clouds: Zwaar bewolkt
Visibility: 9 km
Cloud details: Zwaar bewolkt 762 m
2023/02/01 22:25 EBBL 012225Z AUTO 26011KT 9000 -RA OVC025/// 07/05 Q1022 BLU
EHRD - Rotterdam Airpor, Netherlands
Distance from station: N 75km
Ververst: 01/02/2023 23:25
Zwaar bewolkt
Zwaar bewolkt
 Wind van W
Wind: W 26 km/h
Temperatuur: 8°C
Gevoelstemp.: 4°C
Dauwpunt: 7°C
Vochtigheid: 93%
Barometer: 1021 hPa
Clouds: Zwaar bewolkt
Visibility: 10 km
Cloud details: Few Clouds 457 m
Meestal bewolkt 701 m
Zwaar bewolkt 823 m
2023/02/01 22:25 EHRD 012225Z AUTO 28014KT 250V320 9999 FEW015CB BKN023 OVC027 08/07 Q1021 NOSIG
 
EHSC - Goeree Le Sea, Netherlands
Distance from station: NW 89km
Ververst: 01/02/2023 23:25

 Wind van W
Wind: W 52 km/h
Temperatuur: 9°C
Gevoelstemp.: 4°C
Dauwpunt: 6°C
Vochtigheid: 82%
Barometer: 1022 hPa
Visibility: 10 km
2023/02/01 22:25 EHSC 012225Z AUTO 28028KT 9999 ///////// 09/06 Q1022 W08/H24
EBCI - Charleroi/Gossel, Belgium
Distance from station: Z 90km
Ververst: 01/02/2023 23:20
Meestal bewolkt
Meestal bewolkt
 Wind van WZW
Wind: WZW 19 km/h
Temperatuur: 6°C
Gevoelstemp.: 3°C
Dauwpunt: 4°C
Vochtigheid: 87%
Barometer: 1024 hPa
Clouds: Meestal bewolkt
Visibility: 10 km
Cloud details: Few Clouds 488 m
Meestal bewolkt 1341 m
2023/02/01 22:20 EBCI 012220Z 25010KT 9999 FEW016 BKN044 06/04 Q1024 NOSIG
 
EBCV - Chievres Ab, Belgium
Distance from station: ZZW 90km
Ververst: 01/02/2023 23:25
Zwaar bewolkt
Zwaar bewolkt
 Wind van W
Wind: W 20 km/h
Temperatuur: 7°C
Gevoelstemp.: 4°C
Dauwpunt: 4°C
Vochtigheid: 81%
Barometer: 1025 hPa
Clouds: Zwaar bewolkt
Visibility: 10 km
Cloud details: Zwaar bewolkt 1280 m
2023/02/01 22:25 EBCV 012225Z AUTO 26011KT 9999 OVC042/// 07/04 Q1025 BLU
EHVK - Volkel Rnlafb, Netherlands
Distance from station: ONO 97km
Ververst: 01/02/2023 23:29
Meestal bewolkt
Meestal bewolkt
 Wind van W
Wind: W 20 km/h
Temperatuur: 8°C
Gevoelstemp.: 4°C
Dauwpunt: 5°C
Vochtigheid: 82%
Barometer: 1020 hPa
Clouds: Meestal bewolkt
Visibility: 10 km
Cloud details: Gedeeltelijk bewolkt 762 m
Meestal bewolkt 853 m
Meestal bewolkt 1006 m
2023/02/01 22:29 EHVK 012229Z AUTO 27011KT 240V330 9999 SCT025 BKN028 BKN033 08/05 Q1020 BLU
 
EBLG - Bierset/Liege (c, Belgium
Distance from station: ZO 102km
Ververst: 01/02/2023 23:20
Meestal bewolkt
Meestal bewolkt
 Wind van W
Wind: W 26 km/h
Temperatuur: 6°C
Gevoelstemp.: 2°C
Dauwpunt: 4°C
Vochtigheid: 87%
Barometer: 1023 hPa
Clouds: Meestal bewolkt
Visibility: 10 km
Cloud details: Few Clouds 366 m
Meestal bewolkt 701 m
2023/02/01 22:20 EBLG 012220Z 26014KT 9999 FEW012 BKN023 06/04 Q1023 NOSIG
EHBK - Zuid-Limburg/Bee, Netherlands
Distance from station: OZO 102km
Ververst: 01/02/2023 23:25
Zwaar bewolkt
Zwaar bewolkt
 Wind van WZW
Wind: WZW 17 km/h
Temperatuur: 7°C
Gevoelstemp.: 4°C
Dauwpunt: 5°C
Vochtigheid: 87%
Barometer: 1022 hPa
Clouds: Zwaar bewolkt
Visibility: 10 km
Cloud details: Meestal bewolkt 549 m
Zwaar bewolkt 671 m
2023/02/01 22:25 EHBK 012225Z AUTO 25009KT 190V300 9999 BKN018 OVC022 07/05 Q1022 REDZ
 
EBOS - Oostende Airport, Belgium
Distance from station: W 108km
Ververst: 01/02/2023 23:20
Meestal bewolkt
Meestal bewolkt
 Wind van W
Wind: W 28 km/h
Temperatuur: 7°C
Gevoelstemp.: 3°C
Dauwpunt: 4°C
Vochtigheid: 81%
Barometer: 1025 hPa
Clouds: Meestal bewolkt
Visibility: 10 km
Cloud details: Meestal bewolkt 1189 m
2023/02/01 22:20 EBOS 012220Z 26015KT 9999 BKN039 07/04 Q1025 NOSIG
EHSA - Euro Platform, Netherlands
Distance from station: NW 112km
Ververst: 01/02/2023 23:25

 Wind van W
Wind: W 52 km/h
Temperatuur: 9°C
Gevoelstemp.: 4°C
Dauwpunt: 6°C
Vochtigheid: 82%
Barometer: 1022 hPa
Visibility: 10 km
2023/02/01 22:25 EHSA 012225Z AUTO 26028KT 9999 ///////// 09/06 Q1022 W08/H23
 
EHAM - Amsterdam/Schiph, Netherlands
Distance from station: NNO 118km
Ververst: 01/02/2023 23:25
Meestal bewolkt
Meestal bewolkt
 Wind van W
Wind: W 30 km/h
Temperatuur: 8°C
Gevoelstemp.: 4°C
Dauwpunt: 6°C
Vochtigheid: 87%
Barometer: 1020 hPa
Clouds: Meestal bewolkt
Visibility: 10 km
Cloud details: Gedeeltelijk bewolkt 518 m
Meestal bewolkt 671 m
2023/02/01 22:25 EHAM 012225Z 28016KT 9999 SCT017 BKN022 08/06 Q1020 NOSIG
ETNG - Geilenkirchen(Na, Germany
Distance from station: OZO 118km
Ververst: 01/02/2023 23:14
Lichte regen, Drizzle, Meestal bewolkt
Lichte regen, Drizzle, Meestal bewolkt
 Wind van W
Wind: W 24 km/h
Temperatuur: 7°C
Gevoelstemp.: 3°C
Dauwpunt: 5°C
Vochtigheid: 87%
Barometer: 1021 hPa
Overzicht: Lichte regen, Drizzle
Clouds: Meestal bewolkt
Visibility: 6 km
Cloud details: Meestal bewolkt 549 m
2023/02/01 22:14 ETNG 012214Z 26013KT 6000 -RADZ BKN018 07/05 Q1021